CST,Max TemperatureF,Mean TemperatureF,Min TemperatureF,Max Dew PointF,MeanDew PointF,Min DewpointF,Max Humidity, Mean Humidity, Min Humidity, Max Sea Level PressureIn, Mean Sea Level PressureIn, Min Sea Level PressureIn, Max VisibilityMiles, Mean VisibilityMiles, Min VisibilityMiles, Max Wind SpeedMPH, Mean Wind SpeedMPH, Max Gust SpeedMPH,PrecipitationIn, CloudCover, Events, WindDirDegrees
2013-11-1,40,38,35,37,34,31,92,84,76,29.83,29.58,29.33,10,8,3,16,7,24,T,8,Rain,314
2013-11-2,44,37,29,33,29,23,92,69,45,30.12,30.00,29.84,10,10,9,8,4,12,0.00,6,,330
2013-11-3,48,38,28,32,28,22,78,66,53,30.16,30.09,29.99,10,10,10,24,13,30,0.00,2,,135
2013-11-4,45,40,34,40,35,29,89,74,58,30.09,29.89,29.79,10,7,2,22,14,31,0.28,7,Rain,197
2013-11-5,38,33,27,28,25,23,85,72,59,30.23,30.16,30.07,10,10,10,17,7,22,0.00,5,,266
2013-11-6,35,29,23,25,20,17,75,63,51,30.15,30.06,29.99,10,10,2,20,9,28,T,4,Snow,316
2013-11-7,37,29,21,23,17,13,84,62,40,30.20,30.18,30.15,10,10,10,17,7,20,0.00,2,,293
2013-11-8,36,27,17,32,25,13,89,77,64,30.19,29.91,29.58,10,5,0,23,9,32,0.08,6,Fog-Snow,126
2013-11-9,36,35,34,32,31,28,96,86,75,30.10,29.74,29.55,10,4,0,23,13,31,0.03,8,Fog-Snow,289
2013-11-10,40,32,24,29,25,14,82,66,50,30.27,30.14,30.03,10,8,1,22,12,29,0.02,6,Snow,287
2013-11-11,24,18,12,10,6,4,67,56,44,30.71,30.44,30.11,10,10,6,23,14,32,T,3,Snow,328
2013-11-12,29,20,10,9,6,4,76,55,34,30.73,30.60,30.36,10,10,10,18,11,23,0.00,1,,265
2013-11-13,46,33,20,29,21,11,73,59,45,30.33,29.96,29.80,10,10,10,26,14,33,0.00,0,,237
2013-11-14,47,39,31,31,30,28,82,68,53,29.81,29.78,29.73,10,10,9,10,4,14,0.00,4,,295
2013-11-15,50,41,32,34,32,28,92,71,50,29.83,29.75,29.66,10,8,2,16,8,21,0.00,4,,232
2013-11-16,46,44,41,40,38,33,93,82,70,29.63,29.40,29.26,10,4,0,15,10,20,0.25,7,Fog-Rain,130
2013-11-17,44,37,29,41,33,21,96,84,72,29.66,29.38,29.23,10,6,0,30,14,40,0.03,8,Fog-Rain-Snow,286
2013-11-18,29,23,16,20,16,12,75,69,62,30.28,30.02,29.65,10,10,9,26,14,37,T,7,Snow,305
2013-11-19,40,28,15,25,18,12,84,66,48,30.30,30.13,29.92,10,10,7,23,11,29,0.00,2,,140
2013-11-20,44,40,35,30,25,20,82,61,39,30.06,29.96,29.88,10,9,5,21,12,28,0.00,8,,180
2013-11-21,36,28,20,31,21,11,82,71,60,30.53,30.26,30.06,10,8,2,23,11,30,T,8,Snow,315
2013-11-22,28,18,7,12,7,-1,84,59,34,30.61,30.47,30.35,10,6,1,22,11,30,T,5,Snow,301
2013-11-23,15,8,1,1,-2,-7,76,61,46,30.82,30.71,30.52,10,8,2,17,9,29,T,3,Snow,314
2013-11-24,31,16,0,17,5,-7,76,61,46,30.69,30.24,29.79,10,10,9,28,14,37,T,5,,203
2013-11-25,36,29,21,27,21,6,78,66,53,30.03,29.85,29.70,10,9,2,28,16,36,0.01,8,Snow,280
2013-11-26,21,16,10,10,3,-1,73,62,51,30.39,30.16,29.96,10,7,0,23,13,35,0.01,4,Snow,318
2013-11-27,20,13,6,16,11,1,84,73,62,30.39,30.20,30.05,10,5,1,13,6,18,0.10,6,Snow,152
2013-11-28,22,16,10,14,11,6,92,80,67,30.53,30.30,30.05,10,8,1,15,6,18,0.01,5,Snow,312
2013-11-29,25,11,-3,17,8,-8,91,79,67,30.56,30.41,30.17,10,10,7,14,6,17,0.00,4,,156
2013-11-30,35,29,23,22,20,18,81,69,56,30.19,30.11,30.05,10,8,6,12,6,16,0.00,5,,312